Time;durP1;ratioP1;P1;durP2;ratioP2;P2;SDS_P1;SDS_P2;PMS_P1;PMS_P2;Temp;Humidity;BMP_temperature;BMP_pressure;BME280_temperature;BME280_humidity;BME280_pressure;Samples;Min_cycle;Max_cycle;Signal;HPM_P1;HPM_P2
2023/10/27 00:00:53;;;;;;;2.83;1.50;;;;;;;;;;5056217;28;20043;-85
2023/10/27 00:03:18;;;;;;;3.50;1.83;;;;;;;;;;5069628;28;20047;-84
2023/10/27 00:05:44;;;;;;;3.70;2.00;;;;;;;;;;5065754;28;20043;-84
2023/10/27 00:08:10;;;;;;;5.95;3.15;;;;;;;;;;5070256;28;20039;-85
2023/10/27 00:10:36;;;;;;;5.65;3.00;;;;;;;;;;5019858;28;1094370;-85
2023/10/27 00:13:02;;;;;;;6.55;2.20;;;;;;;;;;5062343;28;20093;-83
2023/10/27 00:15:27;;;;;;;3.92;2.05;;;;;;;;;;5070811;28;20063;-84
2023/10/27 00:17:56;;;;;;;4.88;2.08;;;;;;;;;;5073894;28;20414;-85
2023/10/27 00:20:22;;;;;;;4.55;2.10;;;;;;;;;;5056342;28;20051;-83
2023/10/27 00:22:48;;;;;;;2.70;1.60;;;;;;;;;;5063437;28;20589;-84
2023/10/27 00:25:13;;;;;;;4.78;1.88;;;;;;;;;;5066083;28;20044;-85
2023/10/27 00:27:39;;;;;;;2.63;1.77;;;;;;;;;;5072849;28;20104;-84
2023/10/27 00:30:06;;;;;;;4.85;1.90;;;;;;;;;;5068304;28;20029;-83
2023/10/27 00:32:32;;;;;;;4.82;2.40;;;;;;;;;;5056143;28;20450;-85
2023/10/27 00:34:57;;;;;;;5.60;2.85;;;;;;;;;;5059402;28;20040;-84
2023/10/27 00:37:23;;;;;;;6.95;2.40;;;;;;;;;;5070774;28;20025;-84
2023/10/27 00:39:48;;;;;;;3.50;2.03;;;;;;;;;;5089330;28;20375;-83
2023/10/27 00:42:16;;;;;;;4.60;2.10;;;;;;;;;;5056961;28;20390;-84
2023/10/27 00:44:41;;;;;;;3.60;1.90;;;;;;;;;;5061377;28;20033;-85
2023/10/27 00:47:07;;;;;;;3.83;1.73;;;;;;;;;;5063370;28;20040;-85
2023/10/27 00:49:33;;;;;;;2.55;1.70;;;;;;;;;;5071974;28;20032;-83
2023/10/27 00:51:59;;;;;;;3.47;1.73;;;;;;;;;;5060860;28;20037;-85
2023/10/27 00:54:25;;;;;;;3.70;1.60;;;;;;;;;;5056862;28;20032;-85
2023/10/27 00:56:51;;;;;;;2.45;1.70;;;;;;;;;;5057568;28;20048;-83
2023/10/27 00:59:17;;;;;;;4.28;1.92;;;;;;;;;;5070846;28;20029;-85
2023/10/27 01:01:43;;;;;;;6.03;1.98;;;;;;;;;;5060253;28;20485;-86
2023/10/27 01:04:08;;;;;;;4.10;1.80;;;;;;;;;;5060637;28;20029;-85
2023/10/27 01:06:34;;;;;;;4.25;1.90;;;;;;;;;;5071057;28;20037;-85
2023/10/27 01:09:00;;;;;;;3.30;1.65;;;;;;;;;;5067559;28;20104;-83
2023/10/27 01:11:26;;;;;;;3.75;2.08;;;;;;;;;;5076158;28;20056;-83
2023/10/27 01:13:53;;;;;;;3.90;1.88;;;;;;;;;;5057247;28;20144;-85
2023/10/27 01:16:18;;;;;;;3.10;1.70;;;;;;;;;;5063152;28;20070;-83
2023/10/27 01:18:44;;;;;;;5.05;1.70;;;;;;;;;;5069240;28;20040;-85
2023/10/27 01:21:09;;;;;;;4.38;1.80;;;;;;;;;;5074866;28;20040;-85
2023/10/27 01:23:35;;;;;;;3.13;1.70;;;;;;;;;;5061716;28;20025;-85
2023/10/27 01:26:01;;;;;;;2.28;1.42;;;;;;;;;;5062055;28;20037;-85
2023/10/27 01:28:27;;;;;;;3.33;1.70;;;;;;;;;;5074321;28;20025;-83
2023/10/27 01:30:52;;;;;;;4.07;1.70;;;;;;;;;;5072709;28;20024;-83
2023/10/27 01:33:17;;;;;;;5.50;1.67;;;;;;;;;;5060550;28;20044;-84
2023/10/27 01:35:43;;;;;;;4.32;2.00;;;;;;;;;;5063688;28;20040;-83
2023/10/27 01:38:08;;;;;;;2.50;1.60;;;;;;;;;;5066571;28;20106;-84
2023/10/27 01:40:34;;;;;;;3.30;1.50;;;;;;;;;;5078220;28;20040;-82
2023/10/27 01:42:59;;;;;;;4.28;1.50;;;;;;;;;;5075860;28;20036;-83
2023/10/27 01:45:25;;;;;;;4.63;1.60;;;;;;;;;;5060862;28;20495;-85
2023/10/27 01:47:50;;;;;;;3.42;1.40;;;;;;;;;;5070115;28;20066;-85
2023/10/27 01:50:16;;;;;;;3.15;1.67;;;;;;;;;;5076714;28;20032;-85
2023/10/27 01:52:42;;;;;;;3.55;1.65;;;;;;;;;;5080529;28;20045;-85
2023/10/27 01:55:08;;;;;;;4.80;1.90;;;;;;;;;;5069447;28;20167;-84
2023/10/27 01:57:33;;;;;;;7.15;1.48;;;;;;;;;;5064084;28;20032;-85
2023/10/27 01:59:58;;;;;;;6.32;1.70;;;;;;;;;;5046583;28;20055;-84
2023/10/27 02:02:24;;;;;;;4.20;1.67;;;;;;;;;;5063112;28;20306;-84
2023/10/27 02:04:49;;;;;;;5.32;1.85;;;;;;;;;;5068569;28;20045;-84
2023/10/27 02:07:15;;;;;;;8.23;2.17;;;;;;;;;;5068942;28;20028;-87
2023/10/27 02:09:41;;;;;;;8.00;2.20;;;;;;;;;;5071270;28;20047;-85
2023/10/27 02:12:10;;;;;;;4.78;1.98;;;;;;;;;;5076413;28;20031;-85
2023/10/27 02:14:39;;;;;;;4.40;2.08;;;;;;;;;;5080060;28;20498;-85
2023/10/27 02:17:04;;;;;;;4.72;2.30;;;;;;;;;;5063758;28;20041;-85
2023/10/27 02:19:29;;;;;;;3.42;1.88;;;;;;;;;;5063355;28;20063;-86
2023/10/27 02:21:55;;;;;;;6.57;2.42;;;;;;;;;;5059501;28;20104;-84
2023/10/27 02:24:20;;;;;;;6.32;2.20;;;;;;;;;;5060076;28;20033;-86
2023/10/27 02:26:46;;;;;;;4.65;2.50;;;;;;;;;;5062331;28;20029;-84
2023/10/27 02:29:12;;;;;;;5.63;2.63;;;;;;;;;;5074745;28;20052;-84
2023/10/27 02:31:37;;;;;;;5.80;2.80;;;;;;;;;;5070531;28;20490;-85
2023/10/27 02:34:03;;;;;;;8.27;2.83;;;;;;;;;;5076510;28;20544;-86
2023/10/27 02:36:30;;;;;;;5.80;2.75;;;;;;;;;;5071137;28;20496;-84
2023/10/27 02:38:55;;;;;;;8.40;2.70;;;;;;;;;;5060026;28;20064;-84
2023/10/27 02:41:21;;;;;;;11.30;2.88;;;;;;;;;;5054041;28;20024;-83
2023/10/27 02:43:46;;;;;;;5.70;2.30;;;;;;;;;;5052954;28;20029;-85
2023/10/27 02:46:12;;;;;;;4.88;2.40;;;;;;;;;;5082591;28;20097;-84
2023/10/27 02:48:41;;;;;;;5.32;2.50;;;;;;;;;;5064909;28;20033;-85
2023/10/27 02:51:07;;;;;;;6.18;2.30;;;;;;;;;;5042894;28;20033;-85
2023/10/27 02:53:32;;;;;;;4.63;2.28;;;;;;;;;;5071795;28;20110;-85
2023/10/27 02:56:08;;;;;;;5.10;2.20;;;;;;;;;;5077782;28;20036;-84
2023/10/27 02:58:33;;;;;;;8.45;2.42;;;;;;;;;;5062239;28;20033;-85
2023/10/27 03:00:59;;;;;;;7.22;2.50;;;;;;;;;;5060096;28;20070;-84
2023/10/27 03:03:27;;;;;;;8.65;2.97;;;;;;;;;;5060020;28;20021;-84
2023/10/27 03:05:53;;;;;;;5.38;2.60;;;;;;;;;;5075669;28;20037;-85
2023/10/27 03:08:19;;;;;;;5.30;2.55;;;;;;;;;;5066763;28;20032;-85
2023/10/27 03:10:44;;;;;;;6.53;2.75;;;;;;;;;;5060199;28;20040;-84
2023/10/27 03:13:10;;;;;;;7.72;2.88;;;;;;;;;;5060035;28;20508;-85
2023/10/27 03:15:36;;;;;;;6.60;2.55;;;;;;;;;;5060755;28;20064;-85
2023/10/27 03:18:02;;;;;;;4.85;2.60;;;;;;;;;;5073189;28;20029;-84
2023/10/27 03:20:28;;;;;;;5.10;2.40;;;;;;;;;;5059841;28;20088;-84
2023/10/27 03:22:54;;;;;;;4.38;2.50;;;;;;;;;;5058335;28;20444;-83
2023/10/27 03:25:19;;;;;;;6.97;2.67;;;;;;;;;;5058570;28;20033;-85
2023/10/27 03:27:45;;;;;;;4.10;2.20;;;;;;;;;;5057681;28;20090;-85
2023/10/27 03:30:11;;;;;;;4.05;2.10;;;;;;;;;;5060230;28;20029;-86
2023/10/27 03:32:38;;;;;;;2.78;2.00;;;;;;;;;;5068826;28;20059;-84
2023/10/27 03:35:03;;;;;;;3.00;1.75;;;;;;;;;;5062265;28;20028;-85
2023/10/27 03:37:29;;;;;;;3.08;1.60;;;;;;;;;;5061427;28;20048;-87
2023/10/27 03:39:55;;;;;;;2.92;1.50;;;;;;;;;;5061208;28;20049;-85
2023/10/27 03:42:20;;;;;;;2.40;1.40;;;;;;;;;;5077075;28;20040;-86
2023/10/27 03:44:46;;;;;;;2.33;1.30;;;;;;;;;;5072170;28;20040;-85
2023/10/27 03:47:11;;;;;;;2.40;1.10;;;;;;;;;;5071678;28;20037;-82
2023/10/27 03:49:37;;;;;;;1.00;0.90;;;;;;;;;;5080385;28;20502;-86
2023/10/27 03:52:03;;;;;;;0.80;0.80;;;;;;;;;;5039102;28;20037;-84
2023/10/27 03:54:28;;;;;;;2.47;0.70;;;;;;;;;;5078021;28;20033;-84
2023/10/27 03:56:55;;;;;;;0.88;0.60;;;;;;;;;;5080312;28;20161;-84
2023/10/27 03:59:20;;;;;;;1.90;0.40;;;;;;;;;;5070000;28;20040;-84
2023/10/27 04:01:46;;;;;;;0.45;0.45;;;;;;;;;;5054471;28;20033;-84
2023/10/27 04:04:11;;;;;;;0.88;0.40;;;;;;;;;;5066690;28;20067;-84
2023/10/27 04:06:37;;;;;;;1.55;0.68;;;;;;;;;;5059744;28;20032;-82
2023/10/27 04:09:04;;;;;;;0.52;0.52;;;;;;;;;;5054801;28;20049;-84
2023/10/27 04:11:29;;;;;;;0.68;0.60;;;;;;;;;;5063997;28;20410;-84
2023/10/27 04:13:55;;;;;;;2.13;0.50;;;;;;;;;;5065675;28;20029;-84
2023/10/27 04:16:20;;;;;;;0.30;0.30;;;;;;;;;;5070476;28;20060;-84
2023/10/27 04:18:46;;;;;;;0.60;0.60;;;;;;;;;;5075068;28;20032;-84
2023/10/27 04:21:11;;;;;;;0.38;0.38;;;;;;;;;;5086091;28;20090;-84
2023/10/27 04:23:37;;;;;;;0.40;0.40;;;;;;;;;;5060893;28;20376;-85
2023/10/27 04:26:02;;;;;;;0.57;0.40;;;;;;;;;;5069229;28;20036;-85
2023/10/27 04:28:28;;;;;;;1.00;0.40;;;;;;;;;;5072033;28;20474;-84
2023/10/27 04:30:53;;;;;;;0.70;0.50;;;;;;;;;;5077441;28;20037;-84
2023/10/27 04:33:21;;;;;;;1.77;0.35;;;;;;;;;;5063228;28;20060;-85
2023/10/27 04:35:46;;;;;;;0.25;0.20;;;;;;;;;;5063391;28;20108;-83
2023/10/27 04:38:11;;;;;;;0.30;0.20;;;;;;;;;;5061899;28;20498;-86
2023/10/27 04:40:37;;;;;;;0.57;0.20;;;;;;;;;;5063515;28;20041;-83
2023/10/27 04:43:03;;;;;;;0.50;0.30;;;;;;;;;;5063897;28;20040;-84
2023/10/27 04:45:29;;;;;;;0.20;0.20;;;;;;;;;;5044547;28;20033;-85
2023/10/27 04:47:54;;;;;;;2.10;0.17;;;;;;;;;;5063277;28;20096;-85
2023/10/27 04:50:22;;;;;;;0.28;0.20;;;;;;;;;;5063073;28;20087;-85
2023/10/27 04:52:47;;;;;;;0.30;0.30;;;;;;;;;;5069572;28;20163;-84
2023/10/27 04:55:13;;;;;;;0.28;0.10;;;;;;;;;;5078334;28;20082;-83
2023/10/27 04:57:39;;;;;;;0.20;0.20;;;;;;;;;;5066052;28;20044;-83
2023/10/27 05:00:05;;;;;;;0.10;0.10;;;;;;;;;;5070581;28;20086;-82
2023/10/27 05:02:31;;;;;;;0.32;0.20;;;;;;;;;;5071580;28;20064;-82
2023/10/27 05:04:56;;;;;;;2.58;0.30;;;;;;;;;;5055760;28;20129;-84
2023/10/27 05:07:22;;;;;;;0.10;0.10;;;;;;;;;;5056235;28;20029;-83
2023/10/27 05:09:47;;;;;;;0.80;0.20;;;;;;;;;;5077715;22;21034;-85
2023/10/27 05:12:13;;;;;;;0.70;0.30;;;;;;;;;;5039649;28;20511;-85
2023/10/27 05:14:39;;;;;;;0.20;0.20;;;;;;;;;;5051848;28;20049;-85
2023/10/27 05:17:04;;;;;;;1.15;0.30;;;;;;;;;;5051078;28;20086;-86
2023/10/27 05:19:30;;;;;;;0.10;0.10;;;;;;;;;;5046842;28;20033;-85
2023/10/27 05:21:56;;;;;;;0.45;0.30;;;;;;;;;;5041779;28;20069;-85
2023/10/27 05:24:22;;;;;;;0.40;0.20;;;;;;;;;;5046550;28;20033;-85
2023/10/27 05:26:47;;;;;;;0.57;0.40;;;;;;;;;;5053122;28;20094;-85
2023/10/27 05:29:13;;;;;;;1.77;0.30;;;;;;;;;;5048083;28;20029;-86
2023/10/27 05:31:39;;;;;;;2.05;0.30;;;;;;;;;;5043430;28;20514;-86
2023/10/27 05:34:05;;;;;;;0.43;0.30;;;;;;;;;;5041542;28;20102;-86
2023/10/27 05:36:31;;;;;;;0.28;0.28;;;;;;;;;;5054298;28;20395;-86
2023/10/27 05:38:56;;;;;;;0.45;0.30;;;;;;;;;;5049094;28;20132;-86
2023/10/27 05:41:22;;;;;;;0.50;0.50;;;;;;;;;;5043569;28;20029;-86
2023/10/27 05:43:50;;;;;;;0.70;0.60;;;;;;;;;;5039860;28;20029;-86
2023/10/27 05:46:16;;;;;;;1.83;0.28;;;;;;;;;;5052143;28;20039;-85
2023/10/27 05:48:41;;;;;;;1.70;0.70;;;;;;;;;;5051981;28;20053;-84
2023/10/27 05:51:06;;;;;;;0.75;0.70;;;;;;;;;;5044466;28;20621;-86
2023/10/27 05:53:32;;;;;;;1.40;0.70;;;;;;;;;;5041582;28;20442;-86
2023/10/27 05:55:57;;;;;;;1.42;1.10;;;;;;;;;;5047254;28;20267;-86
2023/10/27 05:58:23;;;;;;;1.88;0.60;;;;;;;;;;5067738;28;20044;-86
2023/10/27 06:00:48;;;;;;;0.32;0.32;;;;;;;;;;5046873;28;20028;-86
2023/10/27 06:03:14;;;;;;;1.25;0.60;;;;;;;;;;5037153;28;20037;-84
2023/10/27 06:05:40;;;;;;;1.38;0.80;;;;;;;;;;5041571;28;20033;-86
2023/10/27 06:08:05;;;;;;;1.88;1.00;;;;;;;;;;5052572;28;20036;-85
2023/10/27 06:10:31;;;;;;;1.25;0.77;;;;;;;;;;5046932;28;20090;-86
2023/10/27 06:12:56;;;;;;;2.30;1.77;;;;;;;;;;5059359;28;20036;-85
2023/10/27 06:15:22;;;;;;;3.42;1.50;;;;;;;;;;5038646;28;20049;-84
2023/10/27 06:17:48;;;;;;;2.10;1.50;;;;;;;;;;5050448;28;20033;-85
2023/10/27 06:20:14;;;;;;;2.72;1.40;;;;;;;;;;5048901;28;20040;-84
2023/10/27 06:22:41;;;;;;;1.27;1.00;;;;;;;;;;5043598;28;20029;-85
2023/10/27 06:25:07;;;;;;;5.13;0.93;;;;;;;;;;5044003;28;20049;-85
2023/10/27 06:27:36;;;;;;;0.95;0.70;;;;;;;;;;5050944;28;20036;-84
2023/10/27 06:30:03;;;;;;;2.78;1.00;;;;;;;;;;5054386;28;20032;-85
2023/10/27 06:32:28;;;;;;;0.73;0.70;;;;;;;;;;5050829;28;20064;-85
2023/10/27 06:34:54;;;;;;;2.30;1.50;;;;;;;;;;5046449;28;20041;-85
2023/10/27 06:37:19;;;;;;;4.75;2.92;;;;;;;;;;5047805;28;20159;-88
2023/10/27 06:39:45;;;;;;;2.55;1.70;;;;;;;;;;5047826;28;20033;-84
2023/10/27 06:42:10;;;;;;;1.90;0.80;;;;;;;;;;5022778;28;20534;-84
2023/10/27 06:44:36;;;;;;;1.83;1.02;;;;;;;;;;5020707;28;20049;-85
2023/10/27 06:47:02;;;;;;;4.25;3.08;;;;;;;;;;5033459;28;20086;-85
2023/10/27 06:49:28;;;;;;;1.40;0.90;;;;;;;;;;5036853;28;20052;-84
2023/10/27 06:51:53;;;;;;;0.75;0.75;;;;;;;;;;5047874;28;20037;-84
2023/10/27 06:54:18;;;;;;;0.98;0.70;;;;;;;;;;5033990;28;20603;-83
2023/10/27 06:56:44;;;;;;;2.30;0.73;;;;;;;;;;5035895;28;20065;-83
2023/10/27 06:59:09;;;;;;;0.88;0.75;;;;;;;;;;5047230;28;20043;-84
2023/10/27 07:01:35;;;;;;;1.10;0.80;;;;;;;;;;5052185;28;20041;-84
2023/10/27 07:04:00;;;;;;;0.57;0.57;;;;;;;;;;5029553;28;20090;-84
2023/10/27 07:06:26;;;;;;;0.50;0.50;;;;;;;;;;5039359;28;20402;-85
2023/10/27 07:08:51;;;;;;;1.23;0.80;;;;;;;;;;5027568;28;20025;-84
2023/10/27 07:11:17;;;;;;;2.47;0.70;;;;;;;;;;5017981;28;20087;-86
2023/10/27 07:13:42;;;;;;;0.88;0.60;;;;;;;;;;5038954;28;20021;-85
2023/10/27 07:16:08;;;;;;;1.38;0.60;;;;;;;;;;5041102;28;20423;-82
2023/10/27 07:18:34;;;;;;;1.38;0.60;;;;;;;;;;5034438;28;20029;-83
2023/10/27 07:20:59;;;;;;;1.85;0.60;;;;;;;;;;5051084;28;20068;-84
2023/10/27 07:23:25;;;;;;;0.70;0.50;;;;;;;;;;5047497;28;20033;-84
2023/10/27 07:25:50;;;;;;;1.33;0.75;;;;;;;;;;5042004;28;20750;-82
2023/10/27 07:28:16;;;;;;;2.10;1.10;;;;;;;;;;5031077;28;20030;-83
2023/10/27 07:30:41;;;;;;;0.95;0.60;;;;;;;;;;5042232;28;20445;-82
2023/10/27 07:33:07;;;;;;;0.57;0.50;;;;;;;;;;5048124;28;20027;-84
2023/10/27 07:35:33;;;;;;;1.45;0.90;;;;;;;;;;5041649;28;20047;-84
2023/10/27 07:37:58;;;;;;;1.17;0.70;;;;;;;;;;5039535;28;20068;-84
2023/10/27 07:40:25;;;;;;;0.60;0.50;;;;;;;;;;5040594;28;20036;-84
2023/10/27 07:42:51;;;;;;;0.30;0.30;;;;;;;;;;5048662;28;20028;-85
2023/10/27 07:45:16;;;;;;;0.52;0.52;;;;;;;;;;5044559;28;20033;-85
2023/10/27 07:47:42;;;;;;;0.80;0.63;;;;;;;;;;5040399;28;20033;-83
2023/10/27 07:50:08;;;;;;;0.38;0.38;;;;;;;;;;5035671;28;20547;-83
2023/10/27 07:52:33;;;;;;;1.08;0.50;;;;;;;;;;5050137;28;20033;-83
2023/10/27 07:55:00;;;;;;;1.52;0.30;;;;;;;;;;5046669;28;20079;-84
2023/10/27 07:57:28;;;;;;;0.43;0.32;;;;;;;;;;5039516;28;20037;-84
2023/10/27 07:59:53;;;;;;;0.20;0.20;;;;;;;;;;5036735;28;20045;-84
2023/10/27 08:02:19;;;;;;;0.50;0.20;;;;;;;;;;5045824;28;20044;-84
2023/10/27 08:04:44;;;;;;;0.32;0.17;;;;;;;;;;5047803;28;20472;-83
2023/10/27 08:07:10;;;;;;;0.57;0.10;;;;;;;;;;5043081;28;20041;-83
2023/10/27 08:09:36;;;;;;;0.68;0.50;;;;;;;;;;5038380;28;20047;-83
2023/10/27 08:12:03;;;;;;;1.17;0.50;;;;;;;;;;5040830;28;20055;-83
2023/10/27 08:14:28;;;;;;;0.30;0.28;;;;;;;;;;5046954;28;20033;-84
2023/10/27 08:16:54;;;;;;;0.65;0.40;;;;;;;;;;5042881;28;20657;-84
2023/10/27 08:19:20;;;;;;;2.20;0.68;;;;;;;;;;5039852;28;20033;-84
2023/10/27 08:21:48;;;;;;;0.47;0.28;;;;;;;;;;5037574;28;20087;-84
2023/10/27 08:24:14;;;;;;;0.50;0.30;;;;;;;;;;5050161;28;20033;-83
2023/10/27 08:26:39;;;;;;;2.80;0.30;;;;;;;;;;5061161;28;20033;-84
2023/10/27 08:29:05;;;;;;;1.13;0.40;;;;;;;;;;5040229;28;20037;-84
2023/10/27 08:31:30;;;;;;;4.97;2.25;;;;;;;;;;5036331;28;20038;-83
2023/10/27 08:33:59;;;;;;;2.88;1.70;;;;;;;;;;5049948;28;20029;-83
2023/10/27 08:36:25;;;;;;;2.40;1.50;;;;;;;;;;5045571;28;20044;-84
2023/10/27 08:38:54;;;;;;;1.08;0.80;;;;;;;;;;5042038;28;20033;-83
2023/10/27 08:41:22;;;;;;;0.40;0.40;;;;;;;;;;5037212;28;20643;-84
2023/10/27 08:43:48;;;;;;;0.70;0.40;;;;;;;;;;5044339;28;20037;-83
2023/10/27 08:46:14;;;;;;;1.63;1.10;;;;;;;;;;5047670;28;20049;-84
2023/10/27 08:48:41;;;;;;;1.08;0.90;;;;;;;;;;5043187;28;20041;-83
2023/10/27 08:51:09;;;;;;;0.57;0.52;;;;;;;;;;5037304;28;20036;-84
2023/10/27 08:53:39;;;;;;;0.73;0.32;;;;;;;;;;5040510;28;20120;-84
2023/10/27 08:56:05;;;;;;;3.22;0.80;;;;;;;;;;5057342;28;20521;-84
2023/10/27 08:58:31;;;;;;;1.85;0.90;;;;;;;;;;5044268;28;20041;-84
2023/10/27 09:00:57;;;;;;;1.05;0.60;;;;;;;;;;5039421;28;20037;-83
2023/10/27 09:03:22;;;;;;;2.28;0.52;;;;;;;;;;5035793;28;20394;-84
2023/10/27 09:05:47;;;;;;;0.70;0.45;;;;;;;;;;5050321;28;20037;-83
2023/10/27 09:08:13;;;;;;;0.47;0.30;;;;;;;;;;5044799;28;20107;-83
2023/10/27 09:10:39;;;;;;;2.40;0.50;;;;;;;;;;5039558;28;20033;-82
2023/10/27 09:13:04;;;;;;;0.00;0.00;;;;;;;;;;5033604;28;20376;-83
2023/10/27 09:15:45;;;;;;;0.10;0.10;;;;;;;;;;5045740;28;20048;-83
2023/10/27 09:18:11;;;;;;;0.30;0.30;;;;;;;;;;5045170;28;20042;-83
2023/10/27 09:20:50;;;;;;;2.78;1.63;;;;;;;;;;5059717;28;20048;-83
2023/10/27 09:23:17;;;;;;;0.30;0.20;;;;;;;;;;5037403;28;20045;-85
2023/10/27 09:25:43;;;;;;;3.70;2.30;;;;;;;;;;5029344;28;20699;-85
2023/10/27 09:28:09;;;;;;;0.35;0.35;;;;;;;;;;5048459;28;20037;-85
2023/10/27 09:30:40;;;;;;;0.20;0.20;;;;;;;;;;5045252;28;20115;-85
2023/10/27 09:33:17;;;;;;;0.10;0.10;;;;;;;;;;5040285;28;20033;-85
2023/10/27 09:35:44;;;;;;;0.98;0.57;;;;;;;;;;5043671;28;20037;-84
2023/10/27 09:38:10;;;;;;;0.85;0.55;;;;;;;;;;5051233;28;20073;-84
2023/10/27 09:40:37;;;;;;;0.22;0.20;;;;;;;;;;5062751;28;20127;-85
2023/10/27 09:43:06;;;;;;;0.52;0.38;;;;;;;;;;5039477;28;20029;-85
2023/10/27 09:45:35;;;;;;;0.20;0.20;;;;;;;;;;5038874;28;20021;-85
2023/10/27 09:48:02;;;;;;;0.20;0.17;;;;;;;;;;5051703;28;20032;-86
2023/10/27 09:50:29;;;;;;;0.10;0.10;;;;;;;;;;5041639;28;20064;-86
2023/10/27 09:53:00;;;;;;;1.48;0.20;;;;;;;;;;5042121;28;20045;-84
2023/10/27 09:55:30;;;;;;;1.30;0.22;;;;;;;;;;5040127;28;20172;-85
2023/10/27 09:57:57;;;;;;;2.47;0.30;;;;;;;;;;5052965;28;20045;-85
2023/10/27 10:00:27;;;;;;;0.40;0.30;;;;;;;;;;5043435;28;20028;-84
2023/10/27 10:02:54;;;;;;;0.20;0.20;;;;;;;;;;5037797;28;20109;-84
2023/10/27 10:05:19;;;;;;;0.38;0.30;;;;;;;;;;5026538;28;20048;-86
2023/10/27 10:07:52;;;;;;;0.17;0.10;;;;;;;;;;5049429;28;20033;-84
2023/10/27 10:10:32;;;;;;;0.35;0.35;;;;;;;;;;5049263;28;20408;-85
2023/10/27 10:13:03;;;;;;;0.32;0.20;;;;;;;;;;5041396;28;20459;-84
2023/10/27 10:15:31;;;;;;;0.40;0.20;;;;;;;;;;5036554;28;20038;-85
2023/10/27 10:17:58;;;;;;;0.20;0.13;;;;;;;;;;5047431;28;20036;-85
2023/10/27 10:20:41;;;;;;;0.20;0.20;;;;;;;;;;5048325;28;20103;-84
2023/10/27 10:23:08;;;;;;;0.30;0.30;;;;;;;;;;5039854;28;20042;-84
2023/10/27 10:25:34;;;;;;;0.47;0.30;;;;;;;;;;5040534;28;20037;-83
2023/10/27 10:28:08;;;;;;;0.17;0.17;;;;;;;;;;5042440;28;20045;-83
2023/10/27 10:30:41;;;;;;;0.60;0.30;;;;;;;;;;5048607;28;20097;-84
2023/10/27 10:33:26;;;;;;;1.42;0.30;;;;;;;;;;5045152;28;20034;-85
2023/10/27 10:35:52;;;;;;;0.60;0.40;;;;;;;;;;5038842;28;20132;-85
2023/10/27 10:38:24;;;;;;;0.80;0.20;;;;;;;;;;5043451;28;20464;-84
2023/10/27 10:40:59;;;;;;;1.38;0.35;;;;;;;;;;5041681;28;20103;-85
2023/10/27 10:43:30;;;;;;;0.85;0.30;;;;;;;;;;5041387;28;20029;-82
2023/10/27 10:45:59;;;;;;;0.45;0.20;;;;;;;;;;5038311;28;20041;-85
2023/10/27 10:48:29;;;;;;;0.28;0.28;;;;;;;;;;5035651;28;20029;-85
2023/10/27 10:50:59;;;;;;;2.90;0.28;;;;;;;;;;5039707;28;20033;-83
2023/10/27 10:53:25;;;;;;;0.10;0.05;;;;;;;;;;5039685;28;20116;-83
2023/10/27 10:55:57;;;;;;;0.50;0.20;;;;;;;;;;5038853;28;20228;-85
2023/10/27 10:58:26;;;;;;;0.55;0.22;;;;;;;;;;5033739;28;20037;-85
2023/10/27 11:00:53;;;;;;;0.40;0.40;;;;;;;;;;5052772;28;20044;-84
2023/10/27 11:03:21;;;;;;;2.00;0.40;;;;;;;;;;5045987;28;20037;-84
2023/10/27 11:05:47;;;;;;;0.20;0.20;;;;;;;;;;5042757;28;20037;-83
2023/10/27 11:08:23;;;;;;;0.77;0.30;;;;;;;;;;5039876;28;20041;-83
2023/10/27 11:11:01;;;;;;;2.67;0.32;;;;;;;;;;5047560;28;20045;-83
2023/10/27 11:13:27;;;;;;;0.47;0.20;;;;;;;;;;5076427;22;20040;-84
2023/10/27 11:15:52;;;;;;;0.28;0.20;;;;;;;;;;5068570;28;20115;-84
2023/10/27 11:18:18;;;;;;;0.38;0.32;;;;;;;;;;5067652;28;20059;-82
2023/10/27 11:20:44;;;;;;;0.30;0.20;;;;;;;;;;5075183;28;20490;-84
2023/10/27 11:23:11;;;;;;;0.68;0.50;;;;;;;;;;5075008;28;20090;-83
2023/10/27 11:25:38;;;;;;;0.60;0.30;;;;;;;;;;5072839;28;20038;-82
2023/10/27 11:28:24;;;;;;;0.80;0.40;;;;;;;;;;5068548;28;20028;-82
2023/10/27 11:31:12;;;;;;;1.05;0.40;;;;;;;;;;5074002;28;20108;-84
2023/10/27 11:33:59;;;;;;;1.10;0.40;;;;;;;;;;5080773;28;20028;-84
2023/10/27 11:36:35;;;;;;;0.30;0.30;;;;;;;;;;5052118;28;20049;-83
2023/10/27 11:39:20;;;;;;;0.73;0.38;;;;;;;;;;5084994;28;20048;-83
2023/10/27 11:42:02;;;;;;;2.20;0.30;;;;;;;;;;5075175;28;20521;-82
2023/10/27 11:44:35;;;;;;;0.52;0.40;;;;;;;;;;5089078;28;20050;-81
2023/10/27 11:47:04;;;;;;;0.43;0.35;;;;;;;;;;5084310;28;20096;-82
2023/10/27 11:49:31;;;;;;;1.60;0.57;;;;;;;;;;5063935;28;20032;-82
2023/10/27 11:51:57;;;;;;;1.30;0.40;;;;;;;;;;5052571;28;20430;-81
2023/10/27 11:54:27;;;;;;;0.52;0.30;;;;;;;;;;5056167;28;20043;-83
2023/10/27 11:56:53;;;;;;;0.55;0.40;;;;;;;;;;5070206;28;20044;-82
2023/10/27 11:59:20;;;;;;;2.80;0.50;;;;;;;;;;5046681;28;20089;-83
2023/10/27 12:01:45;;;;;;;0.43;0.30;;;;;;;;;;5071661;28;20044;-80
2023/10/27 12:04:11;;;;;;;2.50;0.63;;;;;;;;;;5077146;28;20029;-80
2023/10/27 12:06:41;;;;;;;2.92;0.60;;;;;;;;;;5070957;28;20033;-80
2023/10/27 12:09:07;;;;;;;4.10;0.55;;;;;;;;;;5046573;28;20037;-82
2023/10/27 12:11:34;;;;;;;2.33;0.50;;;;;;;;;;5064496;28;20028;-82
2023/10/27 12:13:59;;;;;;;1.02;0.50;;;;;;;;;;5069907;28;20029;-81
2023/10/27 12:16:27;;;;;;;2.00;0.50;;;;;;;;;;5078299;28;20040;-82
2023/10/27 12:18:55;;;;;;;1.92;0.47;;;;;;;;;;5071261;28;20131;-84
2023/10/27 12:21:26;;;;;;;0.68;0.50;;;;;;;;;;5066711;28;20532;-84
2023/10/27 12:23:52;;;;;;;1.05;0.40;;;;;;;;;;5079226;28;20028;-82
2023/10/27 12:26:18;;;;;;;0.90;0.40;;;;;;;;;;5058519;28;20039;-81
2023/10/27 12:28:44;;;;;;;0.95;0.50;;;;;;;;;;5073736;28;20028;-82
2023/10/27 12:31:10;;;;;;;0.35;0.30;;;;;;;;;;5054810;28;20062;-82
2023/10/27 12:33:35;;;;;;;1.15;0.60;;;;;;;;;;5073858;28;20033;-84
2023/10/27 12:36:11;;;;;;;1.10;0.45;;;;;;;;;;5067541;28;20041;-85
2023/10/27 12:38:38;;;;;;;1.20;0.60;;;;;;;;;;5064360;28;20108;-84
2023/10/27 12:41:04;;;;;;;0.38;0.32;;;;;;;;;;5076525;28;20050;-83
2023/10/27 12:43:30;;;;;;;1.15;0.40;;;;;;;;;;5074489;28;20059;-83
2023/10/27 12:45:56;;;;;;;3.40;0.57;;;;;;;;;;5066235;28;20032;-82
2023/10/27 12:48:22;;;;;;;2.13;0.50;;;;;;;;;;5065839;28;20067;-82
2023/10/27 12:50:47;;;;;;;1.08;0.50;;;;;;;;;;5065456;28;20072;-85
2023/10/27 12:53:13;;;;;;;2.58;0.50;;;;;;;;;;5080627;28;20085;-82
2023/10/27 12:55:39;;;;;;;0.68;0.47;;;;;;;;;;5073731;28;20048;-80
2023/10/27 12:58:08;;;;;;;0.77;0.47;;;;;;;;;;5064443;28;20093;-81
2023/10/27 13:00:35;;;;;;;2.55;0.40;;;;;;;;;;5067232;28;20146;-81
2023/10/27 13:03:01;;;;;;;1.55;0.40;;;;;;;;;;5062115;28;20040;-81
2023/10/27 13:05:26;;;;;;;2.00;0.50;;;;;;;;;;5058554;28;20479;-81
2023/10/27 13:07:52;;;;;;;0.80;0.45;;;;;;;;;;5074779;28;20138;-82
2023/10/27 13:10:19;;;;;;;0.80;0.40;;;;;;;;;;5071005;28;20036;-82
2023/10/27 13:12:45;;;;;;;1.38;0.40;;;;;;;;;;5066991;28;20028;-83
2023/10/27 13:15:12;;;;;;;3.30;0.50;;;;;;;;;;5063637;28;20037;-83
2023/10/27 13:17:38;;;;;;;2.15;0.60;;;;;;;;;;5058355;28;20035;-81
2023/10/27 13:20:05;;;;;;;2.38;0.40;;;;;;;;;;5070147;28;20111;-81
2023/10/27 13:22:33;;;;;;;1.15;0.45;;;;;;;;;;5071682;28;20098;-82
2023/10/27 13:24:59;;;;;;;1.17;0.50;;;;;;;;;;5062216;28;20100;-81
2023/10/27 13:27:27;;;;;;;1.38;0.40;;;;;;;;;;5062524;28;20390;-81
2023/10/27 13:29:57;;;;;;;0.25;0.20;;;;;;;;;;5060885;28;20045;-81
2023/10/27 13:32:23;;;;;;;1.40;0.60;;;;;;;;;;5060192;28;20029;-82
2023/10/27 13:34:49;;;;;;;2.40;0.52;;;;;;;;;;5069729;28;20041;-83
2023/10/27 13:37:14;;;;;;;1.08;0.40;;;;;;;;;;5068004;28;20056;-82
2023/10/27 13:39:40;;;;;;;0.70;0.40;;;;;;;;;;5063498;28;20032;-81
2023/10/27 13:42:05;;;;;;;1.05;0.32;;;;;;;;;;5062859;28;20403;-82
2023/10/27 13:44:31;;;;;;;0.98;0.57;;;;;;;;;;5070596;28;20029;-85
2023/10/27 13:46:56;;;;;;;1.60;1.00;;;;;;;;;;5069269;28;20028;-80
2023/10/27 13:49:22;;;;;;;3.22;0.35;;;;;;;;;;5072506;28;20037;-81
2023/10/27 13:51:48;;;;;;;0.80;0.30;;;;;;;;;;5048872;28;20039;-82
2023/10/27 13:54:14;;;;;;;4.13;0.40;;;;;;;;;;5066068;28;20025;-81
2023/10/27 13:56:40;;;;;;;1.25;0.47;;;;;;;;;;5059957;28;20036;-81
2023/10/27 13:59:07;;;;;;;0.40;0.25;;;;;;;;;;5070471;28;20040;-82
2023/10/27 14:01:34;;;;;;;0.88;0.35;;;;;;;;;;5089749;28;20036;-81
2023/10/27 14:03:59;;;;;;;1.85;0.30;;;;;;;;;;5068299;28;20024;-81
2023/10/27 14:06:25;;;;;;;0.60;0.30;;;;;;;;;;5064432;28;20375;-82
2023/10/27 14:08:51;;;;;;;16.75;6.00;;;;;;;;;;5063321;28;20045;-81
2023/10/27 14:11:17;;;;;;;2.17;0.85;;;;;;;;;;5055755;28;20050;-81
2023/10/27 15:10:24;;;;;;;3.15;1.10;;;;;;;;;;5403625;23;20041;-82
2023/10/27 15:12:50;;;;;;;4.60;3.10;;;;;;;;;;5025855;28;20033;-85
2023/10/27 15:15:16;;;;;;;5.07;3.95;;;;;;;;;;5021633;28;20077;-85
2023/10/27 15:17:41;;;;;;;3.33;2.50;;;;;;;;;;5021014;28;20475;-83
2023/10/27 15:20:07;;;;;;;2.00;1.50;;;;;;;;;;4967699;28;20820;-83
2023/10/27 15:22:32;;;;;;;2.13;1.45;;;;;;;;;;4892977;29;20037;-83
2023/10/27 15:24:58;;;;;;;7.90;6.18;;;;;;;;;;4851749;29;20095;-82
2023/10/27 15:27:23;;;;;;;5.05;3.92;;;;;;;;;;4805614;29;20045;-85
2023/10/27 15:29:49;;;;;;;7.70;4.82;;;;;;;;;;4687831;24;20053;-85
2023/10/27 15:32:14;;;;;;;13.13;8.60;;;;;;;;;;4595447;30;20090;-85
2023/10/27 15:34:40;;;;;;;5.45;3.42;;;;;;;;;;4549300;31;20050;-85
2023/10/27 15:37:06;;;;;;;8.32;6.63;;;;;;;;;;4575522;31;20053;-85